Time;durP1;ratioP1;P1;durP2;ratioP2;P2;SDS_P1;SDS_P2;PMS_P1;PMS_P2;Temp;Humidity;BMP_temperature;BMP_pressure;BME280_temperature;BME280_humidity;BME280_pressure;Samples;Min_cycle;Max_cycle;Signal;HPM_P1;HPM_P2
2022/03/29 00:01:15;;;;;;;14.10;9.43;;;;;;;9.49;53.09;98590.67;1803412;79;20984;-44
2022/03/29 00:03:42;;;;;;;13.98;7.80;;;;;;;9.44;52.60;98591.42;1803423;79;21622;-42
2022/03/29 00:06:08;;;;;;;14.03;8.35;;;;;;;9.41;52.46;98589.37;1803370;79;21008;-45
2022/03/29 00:08:34;;;;;;;19.12;10.10;;;;;;;9.37;52.45;98591.81;1803362;79;20980;-44
2022/03/29 00:11:00;;;;;;;14.58;8.45;;;;;;;9.34;52.54;98592.47;1803328;79;20980;-45
2022/03/29 00:13:26;;;;;;;13.32;7.72;;;;;;;9.30;52.71;98587.05;1803303;79;20972;-43
2022/03/29 00:15:52;;;;;;;10.80;6.83;;;;;;;9.28;52.76;98590.20;1803675;79;20972;-43
2022/03/29 00:18:17;;;;;;;14.43;7.15;;;;;;;9.17;53.28;98595.66;1803387;79;21023;-43
2022/03/29 00:20:43;;;;;;;11.85;6.65;;;;;;;9.15;53.39;98588.80;1803480;79;21457;-46
2022/03/29 00:23:09;;;;;;;13.60;6.92;;;;;;;9.10;53.19;98582.54;1803383;79;21516;-43
2022/03/29 00:25:35;;;;;;;10.10;7.03;;;;;;;9.03;53.80;98582.53;1803336;79;21026;-43
2022/03/29 00:28:01;;;;;;;11.12;7.03;;;;;;;9.03;53.65;98579.43;1803276;79;20987;-43
2022/03/29 00:30:27;;;;;;;14.13;7.58;;;;;;;8.98;53.79;98582.80;1803444;79;21474;-42
2022/03/29 00:32:53;;;;;;;11.45;7.45;;;;;;;8.92;54.43;98581.03;1803404;79;21505;-45
2022/03/29 00:35:20;;;;;;;17.60;7.70;;;;;;;8.80;55.52;98571.66;1803659;79;21526;-43
2022/03/29 00:37:45;;;;;;;11.65;6.97;;;;;;;8.70;55.46;98565.26;1774326;79;21015;-43
2022/03/29 00:40:12;;;;;;;11.25;7.40;;;;;;;8.59;57.63;98564.58;1803318;79;21095;-44
2022/03/29 00:42:40;;;;;;;12.37;7.12;;;;;;;8.55;56.18;98559.59;1803432;79;21397;-43
2022/03/29 00:45:07;;;;;;;11.15;6.97;;;;;;;8.51;57.52;98558.09;1803480;79;21458;-43
2022/03/29 00:47:33;;;;;;;10.40;7.28;;;;;;;8.45;56.50;98560.13;1809533;79;21469;-43
2022/03/29 00:49:59;;;;;;;11.57;7.62;;;;;;;8.42;56.86;98559.02;1810701;79;20984;-44
2022/03/29 00:52:25;;;;;;;11.10;7.03;;;;;;;8.34;56.72;98549.41;1810682;79;20979;-43
2022/03/29 00:54:51;;;;;;;11.75;7.65;;;;;;;8.30;57.84;98551.84;1810610;79;21471;-43
2022/03/29 00:57:18;;;;;;;15.65;7.72;;;;;;;8.31;57.20;98546.95;1810785;79;21446;-43
2022/03/29 00:59:46;;;;;;;11.97;7.45;;;;;;;8.34;56.52;98548.09;1810792;79;20983;-42
2022/03/29 01:02:12;;;;;;;;;;;;;;;8.26;57.34;98547.72;1813402;79;21489;-44
2022/03/29 01:04:38;;;;;;;12.82;7.92;;;;;;;8.17;59.34;98546.94;1810712;79;20129;-42
2022/03/29 01:07:05;;;;;;;11.38;7.35;;;;;;;8.16;57.90;98547.38;1810962;79;21026;-42
2022/03/29 01:09:33;;;;;;;15.50;7.60;;;;;;;8.11;57.59;98536.80;1810675;79;21441;-44
2022/03/29 01:11:59;;;;;;;14.47;7.55;;;;;;;8.00;58.83;98525.15;1810830;79;20975;-44
2022/03/29 01:14:27;;;;;;;14.43;7.67;;;;;;;8.02;58.52;98522.45;1810704;79;20976;-45
2022/03/29 01:19:41;;;;;;;13.53;7.55;;;;;;;7.93;59.70;98531.69;1810791;79;21460;-45
2022/03/29 01:22:09;;;;;;;13.95;7.90;;;;;;;7.95;58.59;98519.80;1810479;79;20984;-43
2022/03/29 01:24:37;;;;;;;10.50;7.75;;;;;;;7.91;59.86;98514.37;1810744;79;21019;-43
2022/03/29 01:27:06;;;;;;;12.65;7.62;;;;;;;7.90;58.51;98510.91;1810674;79;21467;-44
2022/03/29 01:29:34;;;;;;;12.10;8.18;;;;;;;7.88;59.37;98507.55;1810641;79;20984;-43
2022/03/29 01:32:07;;;;;;;13.18;7.90;;;;;;;7.84;59.62;98524.33;1810665;79;21539;-44
2022/03/29 01:34:37;;;;;;;15.18;8.00;;;;;;;7.77;60.91;98520.40;1810598;79;20983;-43
2022/03/29 01:37:07;;;;;;;13.28;8.65;;;;;;;7.73;60.45;98519.73;1810767;79;20979;-45
2022/03/29 01:39:34;;;;;;;13.50;8.45;;;;;;;7.71;60.18;98506.33;1810652;79;20972;-44
2022/03/29 01:42:03;;;;;;;13.10;8.00;;;;;;;7.68;59.89;98498.20;1810818;79;21011;-43
2022/03/29 01:44:28;;;;;;;13.08;7.92;;;;;;;7.59;62.00;98507.41;1810678;79;21010;-44
2022/03/29 01:46:54;;;;;;;11.15;8.50;;;;;;;7.61;60.46;98514.70;1777892;80;21067;-45
2022/03/29 01:49:20;;;;;;;21.65;9.00;;;;;;;7.59;60.16;98522.27;1787181;79;21011;-43
2022/03/29 01:51:46;;;;;;;14.13;7.78;;;;;;;7.56;60.29;98512.80;1787148;79;20979;-43
2022/03/29 01:54:11;;;;;;;17.15;8.70;;;;;;;7.55;60.47;98499.35;1787116;80;21461;-43
2022/03/29 01:56:37;;;;;;;15.78;8.68;;;;;;;7.65;60.09;98491.34;1787149;79;21020;-43
2022/03/29 01:59:09;;;;;;;16.87;8.30;;;;;;;7.58;61.44;98493.92;1787084;79;20952;-42
2022/03/29 02:01:42;;;;;;;14.87;8.40;;;;;;;7.59;60.93;98504.78;1786695;80;20976;-43
2022/03/29 02:04:08;;;;;;;12.35;8.55;;;;;;;7.54;61.93;98510.73;1787098;80;21464;-43
2022/03/29 02:06:35;;;;;;;12.07;7.95;;;;;;;7.53;62.10;98493.36;1787138;79;20980;-43
2022/03/29 02:09:03;;;;;;;14.05;8.00;;;;;;;7.58;60.71;98476.08;1787085;80;20980;-44
2022/03/29 02:11:29;;;;;;;13.60;8.58;;;;;;;7.54;61.75;98478.03;1787093;80;20984;-43
2022/03/29 02:13:55;;;;;;;11.35;7.75;;;;;;;7.50;61.38;98493.05;1787045;80;21019;-42
2022/03/29 02:16:21;;;;;;;9.67;7.93;;;;;;;7.46;63.02;98492.85;1787362;79;20952;-44
2022/03/29 02:18:47;;;;;;;14.60;8.53;;;;;;;7.52;60.79;98478.58;1787159;80;21433;-44
2022/03/29 02:21:15;;;;;;;12.75;8.33;;;;;;;7.50;60.96;98475.21;1787120;80;21011;-43
2022/03/29 02:23:41;;;;;;;11.80;8.25;;;;;;;7.48;61.42;98481.00;1787194;80;21426;-43
2022/03/29 02:26:07;;;;;;;16.52;8.80;;;;;;;7.48;61.45;98484.45;1787135;79;20979;-43
2022/03/29 02:28:34;;;;;;;14.23;8.33;;;;;;;7.43;61.86;98485.63;1787073;80;21469;-42
2022/03/29 02:30:59;;;;;;;15.83;8.33;;;;;;;7.37;61.86;98480.72;1787048;80;20987;-43
2022/03/29 02:33:25;;;;;;;17.80;8.40;;;;;;;7.30;62.08;98474.53;1787133;80;21449;-43
2022/03/29 02:35:51;;;;;;;15.03;9.68;;;;;;;7.26;61.32;98474.80;1787222;80;21529;-42
2022/03/29 02:38:18;;;;;;;18.80;9.40;;;;;;;7.16;62.81;98473.14;1787132;80;21497;-42
2022/03/29 02:43:25;;;;;;;14.00;9.73;;;;;;;7.10;63.59;98469.56;1818436;79;22998;-43
2022/03/29 02:45:51;;;;;;;17.77;10.78;;;;;;;7.02;62.00;98475.65;1793084;80;21062;-40
2022/03/29 02:48:17;;;;;;;24.98;10.68;;;;;;;6.96;62.14;98477.30;1792993;80;20994;-41
2022/03/29 02:50:43;;;;;;;17.20;10.23;;;;;;;6.87;63.41;98472.09;1793088;80;21539;-41
2022/03/29 02:53:09;;;;;;;17.07;9.85;;;;;;;6.85;62.40;98469.55;1793156;80;21488;-41
2022/03/29 02:55:34;;;;;;;19.07;10.08;;;;;;;6.80;63.61;98471.56;1793066;80;21551;-40
2022/03/29 02:58:00;;;;;;;19.42;10.75;;;;;;;6.78;62.62;98464.27;1793037;80;20993;-41
2022/03/29 03:00:27;;;;;;;16.40;10.50;;;;;;;6.73;62.37;98457.13;1792981;80;20987;-41
2022/03/29 03:02:55;;;;;;;14.78;9.63;;;;;;;6.63;65.27;98459.87;1792692;80;20991;-41
2022/03/29 03:05:21;;;;;;;17.05;9.90;;;;;;;6.64;63.22;98466.77;1792934;80;20998;-41
2022/03/29 03:07:48;;;;;;;16.30;9.83;;;;;;;6.59;64.05;98463.11;1792928;80;21022;-41
2022/03/29 03:10:15;;;;;;;15.93;9.25;;;;;;;6.55;63.65;98469.42;1793423;80;21442;-40
2022/03/29 03:12:44;;;;;;;15.40;9.70;;;;;;;6.48;65.05;98470.19;1793006;80;21061;-40
2022/03/29 03:15:12;;;;;;;19.02;9.83;;;;;;;6.43;64.77;98469.58;1793014;80;21006;-40
2022/03/29 03:17:38;;;;;;;18.02;9.73;;;;;;;6.40;65.87;98477.56;1792962;80;20971;-41
2022/03/29 03:20:06;;;;;;;20.17;9.73;;;;;;;6.41;64.52;98474.04;1792950;80;21449;-42
2022/03/29 03:22:33;;;;;;;19.10;9.30;;;;;;;6.41;64.76;98471.42;1792913;80;20959;-41
2022/03/29 03:25:00;;;;;;;15.55;9.93;;;;;;;6.44;65.04;98473.89;1793098;80;21455;-41
2022/03/29 03:27:26;;;;;;;16.57;9.63;;;;;;;6.42;65.01;98471.83;1792998;80;21479;-41
2022/03/29 03:29:51;;;;;;;18.65;9.70;;;;;;;6.45;65.00;98480.78;1792969;80;21337;-42
2022/03/29 03:32:17;;;;;;;15.40;9.05;;;;;;;6.46;65.04;98475.95;1792891;80;21010;-42
2022/03/29 03:34:43;;;;;;;17.00;10.08;;;;;;;6.46;65.45;98468.59;1792953;80;20994;-42
2022/03/29 03:37:09;;;;;;;19.35;9.43;;;;;;;6.44;65.64;98466.05;1792923;80;21037;-41
2022/03/29 03:39:37;;;;;;;14.38;9.00;;;;;;;6.48;65.55;98472.80;1793078;80;20959;-42
2022/03/29 03:42:05;;;;;;;17.98;9.63;;;;;;;6.45;65.48;98488.62;1791025;80;21010;-41
2022/03/29 03:44:31;;;;;;;16.48;9.50;;;;;;;6.40;65.93;98489.31;1787637;80;20999;-41
2022/03/29 03:46:57;;;;;;;20.40;9.63;;;;;;;6.39;65.64;98485.03;1787567;80;20968;-42
2022/03/29 03:49:24;;;;;;;18.77;10.08;;;;;;;6.31;66.04;98480.64;1787599;80;21034;-41
2022/03/29 03:51:50;;;;;;;20.60;9.98;;;;;;;6.37;65.72;98480.35;1787784;80;20983;-42
2022/03/29 03:54:16;;;;;;;14.05;9.08;;;;;;;6.36;66.89;98486.48;1787301;80;21460;-42
2022/03/29 03:56:41;;;;;;;14.65;9.15;;;;;;;6.35;65.99;98482.20;1787128;80;20983;-42
2022/03/29 03:59:07;;;;;;;16.75;9.53;;;;;;;6.18;67.38;98488.25;1787209;80;20986;-41
2022/03/29 04:01:36;;;;;;;25.65;10.30;;;;;;;6.26;66.30;98482.67;1787021;80;21018;-41
2022/03/29 04:04:02;;;;;;;17.23;9.75;;;;;;;6.18;66.83;98480.42;1787092;80;21473;-41
2022/03/29 04:06:27;;;;;;;16.20;9.80;;;;;;;6.18;66.40;98476.97;1787272;80;20984;-41
2022/03/29 04:08:53;;;;;;;17.05;10.43;;;;;;;6.15;67.43;98486.66;1787104;80;20984;-41
2022/03/29 04:11:19;;;;;;;17.17;9.93;;;;;;;6.19;66.79;98480.82;1787108;80;20975;-42
2022/03/29 04:13:46;;;;;;;21.35;10.70;;;;;;;6.03;68.73;98485.95;1787127;80;20983;-41
2022/03/29 04:16:13;;;;;;;18.62;11.15;;;;;;;6.03;67.05;98482.51;1787286;80;20998;-41
2022/03/29 04:18:39;;;;;;;23.60;9.90;;;;;;;6.03;66.44;98477.29;1787553;80;21026;-41
2022/03/29 04:21:07;;;;;;;20.70;11.22;;;;;;;6.00;67.19;98470.91;1787025;80;21034;-42
2022/03/29 04:23:32;;;;;;;17.30;10.68;;;;;;;5.95;68.68;98464.16;1786842;80;21444;-42
2022/03/29 04:25:58;;;;;;;22.27;11.30;;;;;;;5.99;68.02;98456.19;1787109;80;20987;-41
2022/03/29 04:28:24;;;;;;;20.62;11.75;;;;;;;5.96;68.71;98455.86;1787041;80;20987;-41
2022/03/29 04:30:50;;;;;;;26.30;12.03;;;;;;;5.98;68.73;98454.48;1787050;80;20990;-41
2022/03/29 04:33:17;;;;;;;24.40;12.82;;;;;;;6.05;68.29;98451.95;1787150;80;21030;-41
2022/03/29 04:35:43;;;;;;;18.82;12.00;;;;;;;6.04;68.50;98451.12;1787179;80;21026;-41
2022/03/29 04:38:08;;;;;;;25.35;12.95;;;;;;;6.09;67.95;98449.13;1787125;80;21490;-41
2022/03/29 04:40:34;;;;;;;25.40;13.18;;;;;;;6.07;68.43;98443.58;1787086;80;20988;-41
2022/03/29 04:43:00;;;;;;;27.17;13.25;;;;;;;6.05;68.52;98442.81;1786903;80;21011;-41
2022/03/29 04:45:26;;;;;;;25.72;12.05;;;;;;;6.09;67.78;98439.13;1787044;80;20986;-42
2022/03/29 04:47:52;;;;;;;21.52;11.25;;;;;;;6.09;68.42;98441.30;1787059;80;20995;-41
2022/03/29 04:50:18;;;;;;;19.50;10.53;;;;;;;6.11;68.66;98439.45;1787051;80;21030;-42
2022/03/29 04:52:44;;;;;;;21.68;11.00;;;;;;;6.12;68.53;98446.34;1787156;80;20994;-41
2022/03/29 04:55:12;;;;;;;22.22;11.10;;;;;;;6.13;68.35;98440.64;1787163;80;21025;-42
2022/03/29 04:57:41;;;;;;;25.00;10.40;;;;;;;6.15;68.86;98449.27;1787090;80;20998;-42
2022/03/29 05:00:07;;;;;;;19.42;10.18;;;;;;;6.15;68.73;98448.80;1786659;80;21372;-42
2022/03/29 05:02:35;;;;;;;19.17;10.43;;;;;;;6.19;68.02;98452.57;1786999;80;21025;-41
2022/03/29 05:05:02;;;;;;;18.67;9.68;;;;;;;6.14;68.36;98460.63;1786998;80;21037;-41
2022/03/29 05:07:28;;;;;;;15.27;9.43;;;;;;;6.14;67.46;98472.38;1787313;80;21518;-41
2022/03/29 05:09:55;;;;;;;16.73;10.95;;;;;;;6.15;67.40;98472.30;1787042;80;20990;-41
2022/03/29 05:12:21;;;;;;;24.02;11.68;;;;;;;6.08;67.59;98474.00;1787039;80;21467;-42
2022/03/29 05:14:47;;;;;;;26.23;11.30;;;;;;;5.95;68.55;98474.59;1787151;80;21003;-41
2022/03/29 05:17:13;;;;;;;17.60;11.12;;;;;;;5.92;69.85;98469.48;1787132;80;20987;-41
2022/03/29 05:19:39;;;;;;;20.10;11.43;;;;;;;6.00;68.46;98476.96;1786969;80;20994;-41
2022/03/29 05:22:05;;;;;;;21.33;10.80;;;;;;;5.90;69.45;98467.42;1787002;80;20983;-41
2022/03/29 05:24:31;;;;;;;20.52;11.63;;;;;;;5.86;70.21;98471.11;1787021;80;21010;-41
2022/03/29 05:26:57;;;;;;;19.32;10.38;;;;;;;5.86;69.75;98467.66;1786963;80;20991;-41
2022/03/29 05:29:25;;;;;;;22.65;11.30;;;;;;;5.83;70.45;98474.33;1787130;80;21022;-42
2022/03/29 05:31:51;;;;;;;21.05;10.60;;;;;;;5.78;70.65;98468.02;1787054;80;20986;-41
2022/03/29 05:34:17;;;;;;;15.88;10.68;;;;;;;5.82;70.65;98470.88;1787290;80;20998;-41
2022/03/29 05:36:45;;;;;;;25.92;12.10;;;;;;;5.84;70.38;98467.73;1787097;80;20991;-41
2022/03/29 05:39:13;;;;;;;18.10;10.13;;;;;;;5.93;69.66;98470.32;1787159;80;21034;-41
2022/03/29 05:41:40;;;;;;;23.25;11.60;;;;;;;5.95;70.11;98471.13;1786962;80;21535;-42
2022/03/29 05:44:06;;;;;;;28.30;11.12;;;;;;;5.99;70.08;98474.45;1779391;80;21066;-41
2022/03/29 05:49:20;;;;;;;22.48;10.25;;;;;;;6.09;69.73;98467.39;1778758;81;20979;-42
2022/03/29 05:51:45;;;;;;;15.58;10.72;;;;;;;6.12;69.53;98471.14;1778453;80;21436;-42
2022/03/29 05:54:11;;;;;;;15.40;10.18;;;;;;;6.19;69.58;98473.45;1756870;81;20987;-42
2022/03/29 05:56:36;;;;;;;16.00;10.78;;;;;;;6.30;68.93;98471.14;1778720;81;21034;-41
2022/03/29 05:59:02;;;;;;;22.75;11.10;;;;;;;6.31;68.99;98477.59;1778713;81;20994;-41
2022/03/29 06:01:28;;;;;;;18.12;11.22;;;;;;;6.25;69.44;98475.75;1778683;81;20990;-40
2022/03/29 06:03:54;;;;;;;18.70;10.13;;;;;;;6.21;69.84;98480.75;1778761;80;21043;-41
2022/03/29 06:06:20;;;;;;;21.15;10.80;;;;;;;6.25;69.67;98490.94;1778673;80;20964;-42
2022/03/29 06:08:46;;;;;;;21.93;10.85;;;;;;;6.17;70.08;98486.58;1778705;81;21070;-41
2022/03/29 06:11:13;;;;;;;20.05;11.18;;;;;;;6.13;70.20;98482.41;1778820;80;21584;-41
2022/03/29 06:13:38;;;;;;;20.53;10.73;;;;;;;6.20;69.92;98486.88;1779065;80;20999;-42
2022/03/29 06:16:04;;;;;;;16.97;12.25;;;;;;;6.12;69.94;98492.02;1778711;81;21018;-42
2022/03/29 06:18:31;;;;;;;31.07;12.03;;;;;;;6.12;69.78;98499.02;1778715;81;21500;-42
2022/03/29 06:20:57;;;;;;;18.23;10.80;;;;;;;6.10;70.16;98500.39;1778659;81;20967;-41
2022/03/29 06:23:23;;;;;;;21.27;11.45;;;;;;;6.21;70.04;98506.86;1778613;80;20976;-41
2022/03/29 06:25:50;;;;;;;17.32;11.00;;;;;;;6.21;70.41;98498.55;1778717;80;20999;-41
2022/03/29 06:28:17;;;;;;;21.53;11.83;;;;;;;6.23;71.39;98506.31;1779068;81;21031;-42
2022/03/29 06:30:44;;;;;;;26.45;12.05;;;;;;;6.21;71.86;98502.94;1778658;81;20983;-48
2022/03/29 06:33:10;;;;;;;20.20;12.35;;;;;;;6.31;71.08;98495.00;1778850;80;21026;-41
2022/03/29 06:35:41;;;;;;;28.95;13.43;;;;;;;6.27;70.83;98500.84;1778654;80;20968;-42
2022/03/29 06:38:06;;;;;;;18.98;11.80;;;;;;;6.26;71.49;98498.34;1777250;80;20951;-42
2022/03/29 06:40:32;;;;;;;60.15;16.48;;;;;;;6.36;71.27;98496.92;1778855;80;20999;-42
2022/03/29 06:42:58;;;;;;;22.37;15.03;;;;;;;6.45;71.10;98493.84;1781448;80;21058;-41
2022/03/29 06:45:25;;;;;;;23.10;13.53;;;;;;;6.55;70.55;98500.77;1786988;80;21019;-41
2022/03/29 06:47:51;;;;;;;26.02;14.10;;;;;;;6.54;70.72;98495.14;1787132;80;20999;-41
2022/03/29 06:50:17;;;;;;;30.62;16.52;;;;;;;6.41;71.10;98501.46;1787066;80;20991;-41
2022/03/29 06:52:45;;;;;;;22.93;13.83;;;;;;;6.32;72.03;98501.46;1787072;80;21468;-42
2022/03/29 06:55:14;;;;;;;23.62;14.25;;;;;;;6.39;71.58;98509.84;1787044;80;20987;-42
2022/03/29 06:57:40;;;;;;;27.27;14.70;;;;;;;6.37;71.97;98510.82;1787026;80;20998;-41
2022/03/29 07:00:15;;;;;;;27.70;16.15;;;;;;;6.41;71.61;98507.16;1786958;80;20986;-42
2022/03/29 07:02:41;;;;;;;27.52;16.48;;;;;;;6.41;72.15;98513.22;1787012;80;20994;-43
2022/03/29 07:05:08;;;;;;;26.68;15.78;;;;;;;6.45;71.98;98517.35;1786983;80;21067;-47
2022/03/29 07:07:33;;;;;;;30.83;16.67;;;;;;;6.46;71.57;98510.38;1787200;80;21049;-41
2022/03/29 07:12:56;;;;;;;27.60;16.60;;;;;;;6.49;71.08;98506.29;1786978;80;21011;-42
2022/03/29 07:15:24;;;;;;;28.67;16.67;;;;;;;6.59;70.86;98500.15;1786954;80;20999;-41
2022/03/29 07:17:51;;;;;;;35.92;17.55;;;;;;;6.62;71.71;98503.89;1786954;80;21485;-42
2022/03/29 07:20:19;;;;;;;31.27;18.48;;;;;;;6.71;70.50;98509.94;1787116;80;21001;-42
2022/03/29 07:22:49;;;;;;;38.05;17.98;;;;;;;6.69;70.70;98506.13;1787009;80;20979;-41
2022/03/29 07:25:18;;;;;;;31.33;16.37;;;;;;;6.70;71.18;98506.96;1786957;80;21534;-42
2022/03/29 07:27:45;;;;;;;25.52;15.38;;;;;;;6.76;70.78;98514.47;1785726;80;21062;-41
2022/03/29 07:30:12;;;;;;;34.55;17.62;;;;;;;6.77;70.39;98510.95;1787318;80;20999;-42
2022/03/29 07:32:50;;;;;;;31.25;17.37;;;;;;;6.71;70.88;98511.24;1787208;80;21104;-42
2022/03/29 07:35:17;;;;;;;;;;;;;;;6.59;71.50;98510.59;1789809;80;21002;-42
2022/03/29 07:37:43;;;;;;;;;;;;;;;6.52;71.99;98516.12;1789790;80;20104;-42
2022/03/29 07:40:15;;;;;;;33.65;19.65;;;;;;;6.49;71.57;98512.38;1787170;80;20104;-41
2022/03/29 07:42:41;;;;;;;26.23;17.25;;;;;;;6.47;71.57;98518.11;1786097;80;21038;-41
2022/03/29 07:45:11;;;;;;;35.60;19.65;;;;;;;6.54;72.05;98522.58;1778872;81;20999;-42
2022/03/29 07:47:36;;;;;;;29.18;18.32;;;;;;;6.48;72.20;98523.73;1782190;79;20976;-42
2022/03/29 07:50:06;;;;;;;29.30;18.60;;;;;;;6.52;71.88;98525.73;1760974;79;20953;-42
2022/03/29 07:52:35;;;;;;;34.38;18.77;;;;;;;6.47;71.91;98527.26;1810445;79;21030;-41
2022/03/29 07:55:03;;;;;;;27.52;18.42;;;;;;;6.44;72.45;98519.59;1809855;79;21457;-41
2022/03/29 07:57:29;;;;;;;33.92;19.52;;;;;;;6.46;72.85;98520.36;1810129;79;21030;-41
2022/03/29 07:59:56;;;;;;;29.82;18.02;;;;;;;6.50;72.80;98514.52;1810264;79;21503;-40
2022/03/29 08:02:22;;;;;;;44.55;20.65;;;;;;;6.55;72.46;98515.13;1810065;79;21441;-42
2022/03/29 08:04:48;;;;;;;40.88;20.82;;;;;;;6.49;72.56;98516.30;1810089;79;21026;-41
2022/03/29 08:07:14;;;;;;;45.25;20.80;;;;;;;6.45;72.86;98514.73;1810410;79;21430;-43
2022/03/29 08:09:40;;;;;;;63.83;21.62;;;;;;;6.47;72.37;98519.89;1810923;79;20999;-46
2022/03/29 08:12:07;;;;;;;42.50;22.60;;;;;;;6.33;73.44;98513.61;1810768;79;20987;-42
2022/03/29 08:14:33;;;;;;;41.37;22.45;;;;;;;6.43;72.50;98517.89;1810952;79;21505;-42
2022/03/29 08:16:59;;;;;;;36.23;21.33;;;;;;;6.39;73.42;98511.14;1810806;79;20980;-43
2022/03/29 08:19:25;;;;;;;39.18;22.10;;;;;;;6.43;73.12;98513.98;1810791;79;21520;-46
2022/03/29 08:21:52;;;;;;;32.55;21.77;;;;;;;6.53;72.56;98517.81;1810685;79;21015;-43
2022/03/29 08:24:23;;;;;;;36.42;22.13;;;;;;;6.40;73.74;98515.42;1811027;79;20964;-43
2022/03/29 08:26:54;;;;;;;39.00;23.57;;;;;;;6.49;73.41;98521.95;1810782;79;21022;-42
2022/03/29 08:29:23;;;;;;;37.23;23.22;;;;;;;6.47;73.04;98519.89;1810313;79;20971;-44
2022/03/29 08:31:51;;;;;;;38.88;25.30;;;;;;;6.49;73.35;98521.52;1810742;79;21590;-44
2022/03/29 08:34:18;;;;;;;47.05;26.17;;;;;;;6.50;73.29;98524.50;1809447;79;21012;-43
2022/03/29 08:36:44;;;;;;;41.13;26.10;;;;;;;6.58;72.70;98527.18;1809552;79;21469;-43
2022/03/29 08:39:11;;;;;;;48.60;29.20;;;;;;;6.69;72.34;98526.16;1795353;79;21488;-44
2022/03/29 08:41:42;;;;;;;42.62;29.07;;;;;;;6.69;71.99;98532.25;1741686;81;21031;-42
2022/03/29 08:44:08;;;;;;;46.65;27.58;;;;;;;6.67;71.84;98531.93;1760971;80;21491;-42
2022/03/29 08:46:38;;;;;;;46.42;25.77;;;;;;;6.64;72.10;98527.72;1760067;81;20987;-42
2022/03/29 08:49:06;;;;;;;39.95;25.62;;;;;;;6.73;71.44;98532.47;1761846;80;21642;-43
2022/03/29 08:51:32;;;;;;;44.42;26.82;;;;;;;6.68;72.48;98531.02;1777766;80;21471;-43
2022/03/29 08:53:58;;;;;;;46.63;25.20;;;;;;;6.82;72.22;98528.98;1794262;80;21789;-43
2022/03/29 08:56:24;;;;;;;43.10;24.55;;;;;;;7.01;71.15;98528.41;1766480;80;21005;-42
2022/03/29 08:58:51;;;;;;;45.03;25.60;;;;;;;7.07;70.51;98524.62;1762898;81;21539;-42
2022/03/29 09:01:22;;;;;;;50.20;25.57;;;;;;;7.15;70.17;98525.51;1763317;80;21503;-44
2022/03/29 09:04:13;;;;;;;40.55;25.68;;;;;;;7.12;70.09;98525.22;1763338;81;21006;-41
2022/03/29 09:06:56;;;;;;;47.85;25.05;;;;;;;7.06;70.22;98518.55;1769850;80;21477;-42
2022/03/29 09:09:26;;;;;;;39.23;24.55;;;;;;;7.11;70.09;98515.23;1778154;80;20999;-41
2022/03/29 09:11:55;;;;;;;39.58;25.27;;;;;;;7.15;69.58;98515.91;1778132;81;20956;-41
2022/03/29 09:14:28;;;;;;;40.92;25.88;;;;;;;7.24;69.14;98516.73;1778200;80;20994;-43
2022/03/29 09:16:55;;;;;;;46.45;26.85;;;;;;;7.16;69.03;98521.98;1777973;81;20948;-44
2022/03/29 09:19:24;;;;;;;48.28;27.60;;;;;;;7.06;70.00;98519.02;1782162;80;21640;-43
2022/03/29 09:21:51;;;;;;;47.73;27.65;;;;;;;7.09;69.80;98517.53;1777479;79;21003;-43
2022/03/29 09:24:18;;;;;;;42.73;27.27;;;;;;;7.03;70.29;98510.03;1747378;82;21023;-43
2022/03/29 09:26:51;;;;;;;;;;;;;;;7.08;69.88;98516.70;1749997;82;21543;-42
2022/03/29 09:29:23;;;;;;;48.23;25.72;;;;;;;7.15;70.01;98515.91;1747368;82;20427;-42
2022/03/29 09:32:14;;;;;;;48.83;29.27;;;;;;;7.00;70.49;98514.94;1765885;81;21014;-44
2022/03/29 09:34:38;;;;;;;50.12;28.55;;;;;;;6.97;70.86;98505.97;1777574;80;21079;-44
2022/03/29 09:37:05;;;;;;;44.70;26.87;;;;;;;7.06;70.54;98504.65;1778016;80;21018;-42
2022/03/29 09:39:45;;;;;;;41.05;26.48;;;;;;;6.93;70.91;98508.38;1766051;80;20987;-41
2022/03/29 09:42:14;;;;;;;46.13;27.73;;;;;;;6.98;70.58;98508.11;1763319;80;21018;-42
2022/03/29 09:44:44;;;;;;;51.48;27.07;;;;;;;6.78;71.25;98506.08;1792624;80;20991;-42
2022/03/29 09:47:13;;;;;;;46.65;27.75;;;;;;;6.77;71.27;98505.72;1794193;79;21097;-42
2022/03/29 09:49:58;;;;;;;48.70;28.07;;;;;;;6.82;70.82;98501.09;1794336;80;20973;-43
2022/03/29 09:52:34;;;;;;;54.98;30.75;;;;;;;6.75;71.20;98505.40;1794395;80;21033;-42
2022/03/29 09:55:13;;;;;;;47.35;30.32;;;;;;;6.81;70.63;98499.87;1792155;80;20981;-42
2022/03/29 09:57:59;;;;;;;79.60;29.90;;;;;;;6.72;71.08;98498.11;1786503;80;21013;-41
2022/03/29 10:00:33;;;;;;;49.20;27.80;;;;;;;6.79;71.07;98499.11;1787220;80;20998;-42
2022/03/29 10:03:02;;;;;;;58.08;27.40;;;;;;;6.79;71.41;98503.86;1786778;80;21432;-42
2022/03/29 10:05:30;;;;;;;49.30;27.22;;;;;;;6.90;70.95;98494.98;1786870;80;20990;-42
2022/03/29 10:10:51;;;;;;;47.78;26.52;;;;;;;7.04;70.96;98497.32;1778308;80;20975;-42
2022/03/29 10:13:23;;;;;;;41.28;25.60;;;;;;;7.26;70.37;98491.33;1758885;80;21508;-42
2022/03/29 10:15:53;;;;;;;42.85;24.82;;;;;;;7.44;70.05;98491.23;1747365;82;21030;-43
2022/03/29 10:18:21;;;;;;;42.23;23.38;;;;;;;7.65;69.02;98481.35;1746227;82;21519;-44
2022/03/29 10:20:48;;;;;;;43.35;23.10;;;;;;;7.95;68.32;98481.39;1747598;82;20960;-43
2022/03/29 10:23:18;;;;;;;39.63;24.40;;;;;;;8.39;67.29;98480.56;1747856;82;21011;-43
2022/03/29 10:25:43;;;;;;;40.90;22.95;;;;;;;8.78;65.92;98477.81;1747043;82;21003;-43
2022/03/29 10:28:11;;;;;;;37.13;23.18;;;;;;;9.33;64.92;98470.94;1746232;81;21516;-44
2022/03/29 10:30:39;;;;;;;;;;;;;;;9.81;63.58;98465.25;1749597;81;20999;-44
2022/03/29 10:33:23;;;;;;;31.25;20.30;;;;;;;10.09;60.15;98466.88;1747151;82;20115;-44
2022/03/29 10:36:09;;;;;;;34.25;19.80;;;;;;;10.43;60.17;98469.09;1747051;82;21034;-45
2022/03/29 10:38:51;;;;;;;33.85;17.90;;;;;;;10.54;59.28;98457.36;1747823;82;20986;-44
2022/03/29 10:41:32;;;;;;;27.15;17.17;;;;;;;10.52;57.20;98456.63;1747585;82;21003;-45
2022/03/29 10:44:08;;;;;;;30.95;16.93;;;;;;;10.75;57.36;98450.62;1782516;80;21054;-44
2022/03/29 10:46:49;;;;;;;28.40;16.23;;;;;;;11.10;56.88;98447.30;1786684;80;20979;-44
2022/03/29 10:49:32;;;;;;;26.60;15.98;;;;;;;11.16;53.12;98440.76;1786739;80;21015;-45
2022/03/29 10:52:09;;;;;;;28.55;15.93;;;;;;;11.10;54.16;98452.56;1786031;80;21046;-44
2022/03/29 10:54:41;;;;;;;24.87;16.70;;;;;;;11.34;53.98;98435.48;1783757;80;21047;-44
2022/03/29 10:57:28;;;;;;;29.52;15.30;;;;;;;11.49;53.64;98430.89;1786795;80;21549;-44
2022/03/29 11:00:12;;;;;;;23.25;16.00;;;;;;;11.25;53.50;98432.69;1785689;80;21176;-44
2022/03/29 11:02:42;;;;;;;29.20;15.58;;;;;;;10.82;52.86;98438.34;1753365;80;21504;-44
2022/03/29 11:05:14;;;;;;;35.33;15.55;;;;;;;10.41;53.65;98431.55;1778069;80;20990;-43
2022/03/29 11:07:58;;;;;;;26.65;15.78;;;;;;;10.23;53.98;98431.81;1786568;80;21504;-43
2022/03/29 11:10:43;;;;;;;30.12;15.43;;;;;;;9.95;53.94;98432.36;1786517;80;21046;-43
2022/03/29 11:13:37;;;;;;;24.25;14.93;;;;;;;9.55;55.19;98428.41;1786428;80;21461;-43
2022/03/29 11:16:28;;;;;;;26.82;16.80;;;;;;;9.51;55.35;98430.02;1769643;80;21206;-44
2022/03/29 11:18:54;;;;;;;21.62;14.40;;;;;;;9.23;56.00;98423.44;1768403;81;21457;-48
2022/03/29 11:21:33;;;;;;;29.30;17.20;;;;;;;9.16;56.04;98426.08;1767747;81;21026;-44
2022/03/29 11:24:02;;;;;;;25.20;14.95;;;;;;;8.99;56.43;98425.84;1766091;81;21071;-43
2022/03/29 11:26:28;;;;;;;27.32;16.20;;;;;;;8.78;57.16;98434.55;1768338;81;21486;-46
2022/03/29 11:28:58;;;;;;;26.23;16.07;;;;;;;8.65;57.78;98434.47;1768706;81;21329;-47
2022/03/29 11:31:34;;;;;;;26.93;16.50;;;;;;;8.63;57.80;98421.92;1768325;80;21074;-43
2022/03/29 11:34:00;;;;;;;34.92;22.55;;;;;;;8.62;58.00;98431.19;1753346;80;21015;-44
2022/03/29 11:36:27;;;;;;;41.18;24.15;;;;;;;8.50;57.97;98428.86;1746757;82;21015;-44
2022/03/29 11:38:52;;;;;;;30.45;18.60;;;;;;;8.34;58.97;98426.28;1746904;81;21096;-45
2022/03/29 11:41:27;;;;;;;27.40;17.30;;;;;;;8.25;59.57;98422.91;1746743;82;21003;-44
2022/03/29 11:43:59;;;;;;;31.33;18.80;;;;;;;8.30;58.56;98423.48;1745440;82;21036;-43
2022/03/29 11:46:46;;;;;;;31.33;19.85;;;;;;;8.17;59.92;98412.89;1747294;80;21034;-43
2022/03/29 11:49:12;;;;;;;36.48;19.57;;;;;;;8.18;59.81;98413.25;1778046;81;21041;-43